createdAt,value
2023-04-20T00:00:44.422Z,7.03
2023-04-20T00:03:17.669Z,7.04
2023-04-20T00:05:44.335Z,7.04
2023-04-20T00:08:10.660Z,7.05
2023-04-20T00:10:37.029Z,7.05
2023-04-20T00:13:03.619Z,7.06
2023-04-20T00:15:29.920Z,7.06
2023-04-20T00:17:56.350Z,7.06
2023-04-20T00:20:22.732Z,7.06
2023-04-20T00:22:49.106Z,7.07
2023-04-20T00:25:15.545Z,7.08
2023-04-20T00:27:41.940Z,7.07
2023-04-20T00:30:09.158Z,7.05
2023-04-20T00:32:35.885Z,7.03
2023-04-20T00:35:03.391Z,7.02
2023-04-20T00:37:30.094Z,7.00
2023-04-20T00:39:57.126Z,6.99
2023-04-20T00:42:32.001Z,6.97
2023-04-20T00:44:58.495Z,6.95
2023-04-20T00:47:24.845Z,6.94
2023-04-20T00:49:54.581Z,6.96
2023-04-20T00:52:21.317Z,6.98
2023-04-20T00:54:47.881Z,7.00
2023-04-20T00:57:21.569Z,7.01
2023-04-20T00:59:50.374Z,7.03
2023-04-20T01:02:17.201Z,7.04
2023-04-20T01:04:46.945Z,7.07
2023-04-20T01:07:13.631Z,7.09
2023-04-20T01:09:42.511Z,7.10
2023-04-20T01:12:09.618Z,7.11
2023-04-20T01:14:36.742Z,7.11
2023-04-20T01:17:03.226Z,7.09
2023-04-20T01:19:32.424Z,7.08
2023-04-20T01:22:09.015Z,7.06
2023-04-20T01:24:35.953Z,7.05
2023-04-20T01:27:05.637Z,7.03
2023-04-20T01:29:34.565Z,7.02
2023-04-20T01:32:01.721Z,7.01
2023-04-20T01:34:31.568Z,7.00
2023-04-20T01:36:58.094Z,6.98
2023-04-20T01:39:36.752Z,6.95
2023-04-20T01:42:04.084Z,6.92
2023-04-20T01:44:30.533Z,6.87
2023-04-20T01:46:56.931Z,6.83
2023-04-20T01:49:23.350Z,6.76
2023-04-20T01:51:52.759Z,6.70
2023-04-20T01:54:21.134Z,6.64
2023-04-20T01:56:47.639Z,6.60
2023-04-20T01:59:15.329Z,6.55
2023-04-20T02:01:41.803Z,6.50
2023-04-20T02:04:08.346Z,6.45
2023-04-20T02:06:37.319Z,6.42
2023-04-20T02:09:03.844Z,6.40
2023-04-20T02:11:30.372Z,6.39
2023-04-20T02:13:56.826Z,6.40
2023-04-20T02:16:23.197Z,6.37
2023-04-20T02:18:49.547Z,6.35
2023-04-20T02:21:15.979Z,6.34
2023-04-20T02:23:42.298Z,6.35
2023-04-20T02:26:10.919Z,6.36
2023-04-20T02:28:39.972Z,6.38
2023-04-20T02:31:06.649Z,6.39
2023-04-20T02:33:33.005Z,6.40
2023-04-20T02:35:59.314Z,6.40
2023-04-20T02:38:25.767Z,6.41
2023-04-20T02:40:52.216Z,6.41
2023-04-20T02:43:18.724Z,6.43
2023-04-20T02:45:45.827Z,6.45
2023-04-20T02:48:16.553Z,6.47
2023-04-20T02:50:42.982Z,6.50
2023-04-20T02:53:21.530Z,6.50
2023-04-20T02:55:58.299Z,6.51
2023-04-20T02:58:34.091Z,6.53
2023-04-20T03:01:15.428Z,6.55
2023-04-20T03:03:42.474Z,6.55
2023-04-20T03:06:10.862Z,6.57
2023-04-20T03:08:39.187Z,6.57
2023-04-20T03:11:24.387Z,6.57
2023-04-20T03:13:50.916Z,6.59
2023-04-20T03:16:17.406Z,6.60
2023-04-20T03:18:48.284Z,6.62
2023-04-20T03:21:14.683Z,6.62
2023-04-20T03:23:41.118Z,6.62
2023-04-20T03:26:07.738Z,6.63
2023-04-20T03:28:57.136Z,6.65
2023-04-20T03:31:24.927Z,6.67
2023-04-20T03:33:52.230Z,6.68
2023-04-20T03:36:18.650Z,6.70
2023-04-20T03:38:45.213Z,6.72
2023-04-20T03:41:11.735Z,6.73
2023-04-20T03:43:38.264Z,6.72
2023-04-20T03:46:04.787Z,6.72
2023-04-20T03:48:31.843Z,6.73
2023-04-20T03:51:01.666Z,6.73
2023-04-20T03:53:28.065Z,6.75
2023-04-20T03:55:55.037Z,6.76
2023-04-20T03:58:21.623Z,6.78
2023-04-20T04:01:09.644Z,6.79
2023-04-20T04:03:38.817Z,6.80
2023-04-20T04:06:06.609Z,6.80
2023-04-20T04:08:33.233Z,6.80
2023-04-20T04:10:59.824Z,6.80
2023-04-20T04:13:26.159Z,6.80
2023-04-20T04:15:52.660Z,6.82
2023-04-20T04:18:20.046Z,6.86
2023-04-20T04:20:46.825Z,6.91
2023-04-20T04:23:13.468Z,6.94
2023-04-20T04:25:44.671Z,6.96
2023-04-20T04:28:11.485Z,7.00
2023-04-20T04:30:47.110Z,7.02
2023-04-20T04:33:16.322Z,7.04
2023-04-20T04:35:43.834Z,7.08
2023-04-20T04:38:11.355Z,7.13
2023-04-20T04:40:37.976Z,7.18
2023-04-20T04:43:08.348Z,7.25
2023-04-20T04:45:38.320Z,7.29
2023-04-20T04:48:06.670Z,7.34
2023-04-20T04:50:35.020Z,7.37
2023-04-20T04:53:01.504Z,7.38
2023-04-20T04:55:30.351Z,7.38
2023-04-20T04:57:56.724Z,7.35
2023-04-20T05:00:23.469Z,7.34
2023-04-20T05:02:50.472Z,7.35
2023-04-20T05:05:17.029Z,7.39
2023-04-20T05:07:43.640Z,7.44
2023-04-20T05:10:10.103Z,7.54
2023-04-20T05:12:37.445Z,7.61
2023-04-20T05:15:04.209Z,7.70
2023-04-20T05:17:30.599Z,7.75
2023-04-20T05:19:57.068Z,7.76
2023-04-20T05:22:23.602Z,7.78
2023-04-20T05:24:50.007Z,7.82
2023-04-20T05:27:16.403Z,7.86
2023-04-20T05:29:42.971Z,7.90
2023-04-20T05:32:09.641Z,7.94
2023-04-20T05:34:43.950Z,7.96
2023-04-20T05:37:10.820Z,7.97
2023-04-20T05:39:37.212Z,7.99
2023-04-20T05:42:04.184Z,8.06
2023-04-20T05:44:30.653Z,8.13
2023-04-20T05:47:07.745Z,8.19
2023-04-20T05:49:34.821Z,8.25
2023-04-20T05:52:01.591Z,8.37
2023-04-20T05:54:28.187Z,8.55
2023-04-20T05:56:54.915Z,8.79
2023-04-20T05:59:21.779Z,9.07
2023-04-20T06:01:48.451Z,9.38
2023-04-20T06:04:15.186Z,9.73
2023-04-20T06:06:41.831Z,9.97
2023-04-20T06:09:08.412Z,10.10
2023-04-20T06:11:34.833Z,10.17
2023-04-20T06:14:01.308Z,10.26
2023-04-20T06:16:28.037Z,10.36
2023-04-20T06:18:57.802Z,10.46
2023-04-20T06:21:24.510Z,10.46
2023-04-20T06:23:51.390Z,10.44
2023-04-20T06:26:17.806Z,10.47
2023-04-20T06:28:47.342Z,10.53
2023-04-20T06:31:13.968Z,10.53
2023-04-20T06:33:40.580Z,10.55
2023-04-20T06:36:07.142Z,10.56
2023-04-20T06:38:33.461Z,10.62
2023-04-20T06:40:59.789Z,10.67
2023-04-20T06:43:26.160Z,10.61
2023-04-20T06:45:52.642Z,10.43
2023-04-20T06:48:31.390Z,10.37
2023-04-20T06:51:01.376Z,10.44
2023-04-20T06:53:27.986Z,10.52
2023-04-20T06:55:54.711Z,10.67
2023-04-20T06:58:21.243Z,10.84
2023-04-20T07:00:47.781Z,10.99
2023-04-20T07:03:14.453Z,11.07
2023-04-20T07:05:41.161Z,11.21
2023-04-20T07:08:07.843Z,11.34
2023-04-20T07:10:34.270Z,11.50
2023-04-20T07:13:00.719Z,11.60
2023-04-20T07:15:27.250Z,11.71
2023-04-20T07:17:53.869Z,11.75
2023-04-20T07:20:20.376Z,11.80
2023-04-20T07:22:49.221Z,11.90
2023-04-20T07:25:15.733Z,12.06
2023-04-20T07:27:42.223Z,12.16
2023-04-20T07:30:09.418Z,12.18
2023-04-20T07:32:39.279Z,12.19
2023-04-20T07:35:06.185Z,12.32
2023-04-20T07:37:38.102Z,12.44
2023-04-20T07:40:05.086Z,12.54
2023-04-20T07:42:32.551Z,12.57
2023-04-20T07:44:59.341Z,12.62
2023-04-20T07:47:25.963Z,12.70
2023-04-20T07:49:52.329Z,12.79
2023-04-20T07:52:19.071Z,12.91
2023-04-20T07:54:55.738Z,13.06
2023-04-20T07:57:22.299Z,13.23
2023-04-20T08:00:09.799Z,13.37
2023-04-20T08:02:54.381Z,13.44
2023-04-20T08:05:21.573Z,13.53
2023-04-20T08:07:53.687Z,13.60
2023-04-20T08:10:20.225Z,13.65
2023-04-20T08:12:46.807Z,13.79
2023-04-20T08:15:31.621Z,13.98
2023-04-20T08:18:07.770Z,14.22
2023-04-20T08:20:56.101Z,14.48
2023-04-20T08:23:23.446Z,14.73
2023-04-20T08:26:12.980Z,15.08
2023-04-20T08:29:00.970Z,15.60
2023-04-20T08:31:31.527Z,16.03
2023-04-20T08:33:58.019Z,16.37
2023-04-20T08:36:24.465Z,16.62
2023-04-20T08:38:53.548Z,16.90
2023-04-20T08:41:30.986Z,17.03
2023-04-20T08:43:58.332Z,16.96
2023-04-20T08:46:25.824Z,16.85
2023-04-20T08:48:53.065Z,16.68
2023-04-20T08:51:40.075Z,16.75
2023-04-20T08:54:06.617Z,16.80
2023-04-20T08:56:37.724Z,16.84
2023-04-20T08:59:04.908Z,16.87
2023-04-20T09:01:36.019Z,16.82
2023-04-20T09:04:17.319Z,16.82
2023-04-20T09:06:55.597Z,16.76
2023-04-20T09:09:24.683Z,16.78
2023-04-20T09:12:22.578Z,17.05
2023-04-20T09:14:49.692Z,17.28
2023-04-20T09:17:33.620Z,17.38
2023-04-20T09:20:03.030Z,17.46
2023-04-20T09:22:49.890Z,17.53
2023-04-20T09:25:24.127Z,17.64
2023-04-20T09:28:11.301Z,17.76
2023-04-20T09:31:00.182Z,17.63
2023-04-20T09:33:41.141Z,17.51
2023-04-20T09:36:10.367Z,17.51
2023-04-20T09:39:03.203Z,17.52
2023-04-20T09:41:41.545Z,17.49
2023-04-20T09:44:37.852Z,17.41
2023-04-20T09:47:35.110Z,17.32
2023-04-20T09:50:32.080Z,16.88
2023-04-20T09:53:16.629Z,16.48
2023-04-20T09:55:59.313Z,16.28
2023-04-20T09:58:28.683Z,16.08
2023-04-20T10:01:25.390Z,15.80
2023-04-20T10:04:11.656Z,15.50
2023-04-20T10:06:58.382Z,15.23
2023-04-20T10:09:29.650Z,15.01
2023-04-20T10:12:17.775Z,14.87
2023-04-20T10:14:54.042Z,14.71
2023-04-20T10:17:29.331Z,14.50
2023-04-20T10:19:58.717Z,14.26
2023-04-20T10:22:26.596Z,14.15
2023-04-20T10:24:53.001Z,14.11
2023-04-20T10:27:20.799Z,14.18
2023-04-20T10:29:47.439Z,14.33
2023-04-20T10:32:26.253Z,14.63
2023-04-20T10:35:05.608Z,15.79
2023-04-20T10:37:46.392Z,17.03
2023-04-20T10:40:12.995Z,17.92
2023-04-20T10:42:45.809Z,18.30
2023-04-20T10:45:14.898Z,18.77
2023-04-20T10:47:41.488Z,19.65
2023-04-20T10:50:15.651Z,19.91
2023-04-20T10:52:44.488Z,20.12
2023-04-20T10:55:21.036Z,19.84
2023-04-20T10:57:48.042Z,19.30
2023-04-20T11:00:19.280Z,18.81
2023-04-20T11:02:47.159Z,18.23
2023-04-20T11:05:13.960Z,17.53
2023-04-20T11:07:57.522Z,17.11
2023-04-20T11:10:36.124Z,16.76
2023-04-20T11:13:18.437Z,16.61
2023-04-20T11:15:44.817Z,16.47
2023-04-20T11:18:11.510Z,16.43
2023-04-20T11:20:49.219Z,16.34
2023-04-20T11:23:15.771Z,16.25
2023-04-20T11:25:52.694Z,16.20
2023-04-20T11:28:19.800Z,16.19
2023-04-20T11:30:59.626Z,16.19
2023-04-20T11:33:29.602Z,16.17
2023-04-20T11:35:56.880Z,16.13
2023-04-20T11:38:30.654Z,16.09
2023-04-20T11:40:57.238Z,16.18
2023-04-20T11:43:41.170Z,16.37
2023-04-20T11:46:16.421Z,16.50
2023-04-20T11:48:42.894Z,16.67
2023-04-20T11:51:20.097Z,16.77
2023-04-20T11:53:49.624Z,16.96
2023-04-20T11:56:36.991Z,17.20
2023-04-20T11:59:09.327Z,17.46
2023-04-20T12:01:38.500Z,17.90
2023-04-20T12:04:05.181Z,18.22
2023-04-20T12:06:32.460Z,18.52
2023-04-20T12:08:59.648Z,18.64
2023-04-20T12:11:26.103Z,18.67
2023-04-20T12:13:52.668Z,18.86
2023-04-20T12:16:19.708Z,18.98
2023-04-20T12:18:51.862Z,18.90
2023-04-20T12:21:44.544Z,18.56
2023-04-20T12:24:11.035Z,18.12
2023-04-20T12:26:46.641Z,17.64
2023-04-20T12:29:38.092Z,17.29
2023-04-20T12:32:12.428Z,17.03
2023-04-20T12:35:00.701Z,17.01
2023-04-20T12:37:27.925Z,17.01
2023-04-20T12:39:54.686Z,16.95
2023-04-20T12:42:21.275Z,16.89
2023-04-20T12:44:48.200Z,16.88
2023-04-20T12:47:27.206Z,16.93
2023-04-20T12:49:53.839Z,17.05
2023-04-20T12:52:27.549Z,17.24
2023-04-20T12:55:02.413Z,17.52
2023-04-20T12:57:29.123Z,18.24
2023-04-20T13:00:01.692Z,18.85
2023-04-20T13:02:28.404Z,19.43
2023-04-20T13:05:07.030Z,20.21
2023-04-20T13:07:41.184Z,20.78
2023-04-20T13:10:12.418Z,20.78
2023-04-20T13:12:38.842Z,20.93
2023-04-20T13:15:06.700Z,22.66
2023-04-20T13:17:53.365Z,24.91
2023-04-20T13:20:44.415Z,27.13
2023-04-20T13:23:31.195Z,29.20
2023-04-20T13:25:58.000Z,30.50
2023-04-20T13:28:27.601Z,31.73
2023-04-20T13:30:54.060Z,32.78
2023-04-20T13:33:20.641Z,32.86
2023-04-20T13:35:58.323Z,31.33
2023-04-20T13:38:43.754Z,29.20
2023-04-20T13:41:10.230Z,27.78
2023-04-20T13:43:57.092Z,26.87
2023-04-20T13:46:27.283Z,26.65
2023-04-20T13:48:56.182Z,26.06
2023-04-20T13:51:43.652Z,25.04
2023-04-20T13:54:15.226Z,24.85
2023-04-20T13:56:41.806Z,23.89
2023-04-20T13:59:15.589Z,22.99
2023-04-20T14:01:44.694Z,22.85
2023-04-20T14:04:14.364Z,23.03
2023-04-20T14:06:43.604Z,22.38
2023-04-20T14:09:10.050Z,21.83
2023-04-20T14:11:36.491Z,21.53
2023-04-20T14:14:02.944Z,21.65
2023-04-20T14:16:30.468Z,21.48
2023-04-20T14:18:56.927Z,21.08
2023-04-20T14:21:23.436Z,20.60
2023-04-20T14:23:52.911Z,20.23
2023-04-20T14:26:22.571Z,19.94
2023-04-20T14:28:48.942Z,19.84
2023-04-20T14:31:17.970Z,19.99
2023-04-20T14:33:50.020Z,19.99
2023-04-20T14:36:16.700Z,19.90
2023-04-20T14:38:43.276Z,19.60
2023-04-20T14:41:09.727Z,19.19
2023-04-20T14:43:36.771Z,18.81
2023-04-20T14:46:07.232Z,18.44
2023-04-20T14:48:44.227Z,18.16
2023-04-20T14:51:19.751Z,17.87
2023-04-20T14:53:46.264Z,17.55
2023-04-20T14:56:12.651Z,17.32
2023-04-20T14:58:39.199Z,17.18
2023-04-20T15:01:08.371Z,17.11
2023-04-20T15:03:34.810Z,17.08
2023-04-20T15:06:04.519Z,17.10
2023-04-20T15:08:31.139Z,17.17
2023-04-20T15:10:57.628Z,17.23
2023-04-20T15:13:24.681Z,17.26
2023-04-20T15:15:54.196Z,17.25
2023-04-20T15:18:21.740Z,17.13
2023-04-20T15:20:50.006Z,17.02
2023-04-20T15:23:17.024Z,17.09
2023-04-20T15:25:54.397Z,17.56
2023-04-20T15:28:23.697Z,18.05
2023-04-20T15:30:53.870Z,18.07
2023-04-20T15:33:22.686Z,18.05
2023-04-20T15:35:49.067Z,17.86
2023-04-20T15:38:15.970Z,17.55
2023-04-20T15:40:42.324Z,17.34
2023-04-20T15:43:11.348Z,17.28
2023-04-20T15:45:40.816Z,17.36
2023-04-20T15:48:13.037Z,17.43
2023-04-20T15:50:49.629Z,17.35
2023-04-20T15:53:16.397Z,17.16
2023-04-20T15:55:46.008Z,16.99
2023-04-20T15:58:12.640Z,16.79
2023-04-20T16:00:41.543Z,16.51
2023-04-20T16:03:08.458Z,16.25
2023-04-20T16:05:39.408Z,16.07
2023-04-20T16:08:05.887Z,15.90
2023-04-20T16:10:32.436Z,15.76
2023-04-20T16:12:59.233Z,15.65
2023-04-20T16:15:25.737Z,15.50
2023-04-20T16:17:52.805Z,15.35
2023-04-20T16:20:21.755Z,15.23
2023-04-20T16:22:50.783Z,15.13
2023-04-20T16:25:18.715Z,15.06
2023-04-20T16:27:47.477Z,15.02
2023-04-20T16:30:13.969Z,15.00
2023-04-20T16:32:43.050Z,15.02
2023-04-20T16:35:12.174Z,15.02
2023-04-20T16:37:38.742Z,14.97
2023-04-20T16:40:19.176Z,14.87
2023-04-20T16:42:45.581Z,14.78
2023-04-20T16:45:12.366Z,14.71
2023-04-20T16:47:38.923Z,14.61
2023-04-20T16:50:10.421Z,14.52
2023-04-20T16:52:37.938Z,14.44
2023-04-20T16:55:06.973Z,14.36
2023-04-20T16:57:33.488Z,14.28
2023-04-20T17:00:02.270Z,14.21
2023-04-20T17:02:30.594Z,14.14
2023-04-20T17:05:02.908Z,14.07
2023-04-20T17:07:29.553Z,14.01
2023-04-20T17:09:59.352Z,13.96
2023-04-20T17:12:26.085Z,13.88
2023-04-20T17:14:52.615Z,13.83
2023-04-20T17:17:19.019Z,13.78
2023-04-20T17:19:47.930Z,13.73
2023-04-20T17:22:14.421Z,13.68
2023-04-20T17:24:41.193Z,13.63
2023-04-20T17:27:07.691Z,13.58
2023-04-20T17:29:34.157Z,13.54
2023-04-20T17:32:00.789Z,13.49
2023-04-20T17:34:27.632Z,13.45
2023-04-20T17:36:54.094Z,13.37
2023-04-20T17:39:20.726Z,13.28
2023-04-20T17:41:47.200Z,13.18
2023-04-20T17:44:21.259Z,13.06
2023-04-20T17:46:49.479Z,12.96
2023-04-20T17:49:15.906Z,12.86
2023-04-20T17:52:02.966Z,12.78
2023-04-20T17:54:43.451Z,12.70
2023-04-20T17:57:12.699Z,12.66
2023-04-20T17:59:51.497Z,12.63
2023-04-20T18:02:18.684Z,12.61
2023-04-20T18:05:19.327Z,12.60
2023-04-20T18:07:47.255Z,12.57
2023-04-20T18:10:13.729Z,12.55
2023-04-20T18:12:43.205Z,12.54
2023-04-20T18:15:10.816Z,12.53
2023-04-20T18:17:37.452Z,12.51
2023-04-20T18:20:05.258Z,12.48
2023-04-20T18:22:32.669Z,12.41
2023-04-20T18:24:59.165Z,12.34
2023-04-20T18:27:37.085Z,12.26
2023-04-20T18:33:01.081Z,12.09
2023-04-20T18:35:27.620Z,12.02
2023-04-20T18:37:54.352Z,11.95
2023-04-20T18:40:24.175Z,11.86
2023-04-20T18:42:50.613Z,11.80
2023-04-20T18:45:17.028Z,11.71
2023-04-20T18:47:55.510Z,11.64
2023-04-20T18:50:35.596Z,11.55
2023-04-20T18:53:02.538Z,11.47
2023-04-20T18:55:29.152Z,11.41
2023-04-20T18:57:56.759Z,11.34
2023-04-20T19:00:23.403Z,11.27
2023-04-20T19:02:49.995Z,11.22
2023-04-20T19:05:16.761Z,11.17
2023-04-20T19:07:44.000Z,11.13
2023-04-20T19:10:11.349Z,11.09
2023-04-20T19:12:37.937Z,11.07
2023-04-20T19:15:05.001Z,11.05
2023-04-20T19:17:31.942Z,11.02
2023-04-20T19:19:58.577Z,10.97
2023-04-20T19:22:25.418Z,10.90
2023-04-20T19:24:53.662Z,10.85
2023-04-20T19:27:26.935Z,10.79
2023-04-20T19:30:06.566Z,10.73
2023-04-20T19:32:36.319Z,10.68
2023-04-20T19:35:02.969Z,10.65
2023-04-20T19:37:33.276Z,10.62
2023-04-20T19:39:59.712Z,10.59
2023-04-20T19:42:27.247Z,10.60
2023-04-20T19:44:55.787Z,10.60
2023-04-20T19:47:22.859Z,10.62
2023-04-20T19:49:49.303Z,10.63
2023-04-20T19:52:21.305Z,10.64
2023-04-20T19:54:47.850Z,10.65
2023-04-20T19:57:14.438Z,10.66
2023-04-20T19:59:41.062Z,10.68
2023-04-20T20:05:14.155Z,10.72
2023-04-20T20:07:59.731Z,10.74
2023-04-20T20:10:26.452Z,10.75
2023-04-20T20:12:52.889Z,10.74
2023-04-20T20:15:19.481Z,10.73
2023-04-20T20:17:46.166Z,10.71
2023-04-20T20:20:12.806Z,10.70
2023-04-20T20:23:09.092Z,10.68
2023-04-20T20:25:36.121Z,10.64
2023-04-20T20:28:02.590Z,10.60
2023-04-20T20:30:37.692Z,10.58
2023-04-20T20:33:04.480Z,10.53
2023-04-20T20:35:31.052Z,10.48
2023-04-20T20:38:00.812Z,10.44
2023-04-20T20:40:27.326Z,10.39
2023-04-20T20:42:53.741Z,10.33
2023-04-20T20:45:20.477Z,10.28
2023-04-20T20:47:47.025Z,10.22
2023-04-20T20:50:16.717Z,10.17
2023-04-20T20:52:43.110Z,10.11
2023-04-20T20:55:12.782Z,10.06
2023-04-20T20:57:39.229Z,10.00
2023-04-20T21:00:07.182Z,9.91
2023-04-20T21:02:34.195Z,9.82
2023-04-20T21:05:00.955Z,9.75
2023-04-20T21:07:27.383Z,9.68
2023-04-20T21:09:54.123Z,9.61
2023-04-20T21:12:20.483Z,9.55
2023-04-20T21:14:47.126Z,9.50
2023-04-20T21:17:13.787Z,9.44
2023-04-20T21:19:42.897Z,9.38
2023-04-20T21:22:09.424Z,9.33
2023-04-20T21:24:36.030Z,9.26
2023-04-20T21:27:05.371Z,9.21
2023-04-20T21:29:40.021Z,9.16
2023-04-20T21:32:26.819Z,9.11
2023-04-20T21:34:53.480Z,9.06
2023-04-20T21:37:20.055Z,9.02
2023-04-20T21:39:58.856Z,8.95
2023-04-20T21:42:28.011Z,8.88
2023-04-20T21:44:54.384Z,8.81
2023-04-20T21:47:20.801Z,8.75
2023-04-20T21:49:50.594Z,8.69
2023-04-20T21:52:17.147Z,8.62
2023-04-20T21:54:57.437Z,8.57
2023-04-20T21:57:24.042Z,8.53
2023-04-20T21:59:50.385Z,8.48
2023-04-20T22:02:17.112Z,8.43
2023-04-20T22:04:46.825Z,8.39
2023-04-20T22:07:15.544Z,8.34
2023-04-20T22:09:42.231Z,8.29
2023-04-20T22:12:11.133Z,8.24
2023-04-20T22:14:40.285Z,8.18
2023-04-20T22:17:06.777Z,8.15
2023-04-20T22:19:33.110Z,8.11
2023-04-20T22:21:59.432Z,8.07
2023-04-20T22:24:28.577Z,8.04
2023-04-20T22:26:55.252Z,8.01
2023-04-20T22:29:21.811Z,7.97
2023-04-20T22:31:48.396Z,7.94
2023-04-20T22:34:14.916Z,7.92
2023-04-20T22:36:41.333Z,7.91
2023-04-20T22:39:07.918Z,7.88
2023-04-20T22:41:34.289Z,7.85
2023-04-20T22:44:00.762Z,7.81
2023-04-20T22:46:27.246Z,7.78
2023-04-20T22:48:53.602Z,7.75
2023-04-20T22:51:19.997Z,7.71
2023-04-20T22:53:46.489Z,7.66
2023-04-20T22:56:12.805Z,7.62
2023-04-20T22:58:39.186Z,7.59
2023-04-20T23:01:05.609Z,7.56
2023-04-20T23:03:32.148Z,7.52
2023-04-20T23:05:58.991Z,7.48
2023-04-20T23:08:25.661Z,7.44
2023-04-20T23:10:52.225Z,7.41
2023-04-20T23:13:19.384Z,7.39
2023-04-20T23:15:45.811Z,7.37
2023-04-20T23:18:12.225Z,7.34
2023-04-20T23:20:38.675Z,7.30
2023-04-20T23:23:05.175Z,7.29
2023-04-20T23:25:31.586Z,7.27
2023-04-20T23:27:57.961Z,7.25
2023-04-20T23:30:24.499Z,7.22
2023-04-20T23:32:50.861Z,7.19
2023-04-20T23:35:17.388Z,7.17
2023-04-20T23:37:43.894Z,7.16
2023-04-20T23:40:10.251Z,7.14
2023-04-20T23:42:36.717Z,7.11
2023-04-20T23:45:07.164Z,7.09
2023-04-20T23:47:33.617Z,7.07
2023-04-20T23:50:00.124Z,7.05
2023-04-20T23:52:26.575Z,7.05
2023-04-20T23:54:53.828Z,7.04
2023-04-20T23:57:20.189Z,7.05
2023-04-20T23:59:46.598Z,7.05
